METAR Data
IDs: Format: Raw Decoded Include TAF

Data at: 1740 UTC 16 Oct 2021

KLBX 161653Z AUTO 01015G21KT 10SM CLR 22/09 A3027 RMK AO2 SLP249 T02220089
KLBX 161553Z AUTO 04016G24KT 10SM CLR 21/07 A3027 RMK AO2 SLP249 T02060072
KLBX 161453Z AUTO 03014G24KT 10SM CLR 19/09 A3027 RMK AO2 PK WND 03028/1425 SLP250 T01940089 51021
KLBX 161353Z AUTO 03013G19KT 10SM CLR 18/10 A3026 RMK AO2 SLP245 T01830100
KLBX 161253Z AUTO 02013KT 10SM CLR 17/09 A3023 RMK AO2 SLP235 T01670094
KLBX 161153Z AUTO 02012KT 10SM CLR 17/09 A3021 RMK AO2 SLP229 70047 T01720094 10228 20172 53027
KLBX 161053Z AUTO 01011KT 10SM CLR 18/09 A3018 RMK AO2 SLP218 T01780094
KLBX 160953Z AUTO 01015KT 10SM CLR 18/10 A3015 RMK AO2 SLP209 T01830100
KLBX 160853Z AUTO 36014G20KT 10SM CLR 19/12 A3013 RMK AO2 SLP202 T01940117 53014
KLBX 160753Z AUTO 36010KT 10SM OVC050 21/14 A3012 RMK AO2 SLP198 T02060139
KLBX 160653Z AUTO 36016KT 10SM CLR 22/14 A3010 RMK AO2 SLP192 T02170144
KLBX 160553Z AUTO 36019G24KT 10SM CLR 23/16 A3009 RMK AO2 SLP188 T02280156 10256 20228 403330228 51022
KLBX 160453Z AUTO 35012KT 10SM CLR 24/18 A3008 RMK AO2 SLP184 T02390183
KLBX 160353Z AUTO 34011KT 10SM CLR 24/19 A3006 RMK AO2 SLP179 T02440194
KLBX 160300Z AUTO 34009KT 10SM FEW026 BKN035 25/21 A3003 RMK AO2 T02500211
KLBX 160253Z AUTO 33008KT 10SM BKN028 BKN035 25/22 A3002 RMK AO2 SLP166 T02500222 53027
KLBX 160234Z AUTO 32005KT 10SM BKN028 OVC034 25/23 A3001 RMK AO2 T02500228
KLBX 160153Z AUTO 34003KT 10SM SCT033 24/22 A2998 RMK AO2 SLP152 T02440222
KLBX 160053Z AUTO 00000KT 10SM CLR 24/22 A2995 RMK AO2 SLP140 T02390217
KLBX 152353Z AUTO 00000KT 8SM CLR 24/23 A2994 RMK AO2 SLP139 60047 T02440228 10333 20239 51016
KLBX 152253Z AUTO 19004KT 10SM FEW041 SCT100 26/23 A2993 RMK AO2 LTG DSNT SW RAE08B41E53 TSB00E21 SLP133 P0000 T02560228
KLBX 152249Z AUTO 19006KT 10SM -RA FEW037 SCT060 BKN100 26/23 A2993 RMK AO2 LTG DSNT SW RAE08B41 TSB00E21 P0000
KLBX 152227Z AUTO 22003KT 8SM VCTS SCT060 26/23 A2993 RMK AO2 LTG DSNT NE AND E AND SW RAE08 TSB00E21 P0000 T02560228
KLBX 152202Z AUTO 11003KT 10SM -TSRA SCT024 BKN080 26/22 A2989 RMK AO2 LTG DSNT NE AND SW AND W TSB00 P0000 T02560217
KLBX 152155Z AUTO 16003KT 5SM VCTS -RA SCT026 BKN050 OVC080 25/22 A2989 RMK AO2 LTG DSNT NE AND W P0000 T02500217
KLBX 152153Z AUTO 16005KT 2 1/2SM VCTS -RA BKN029 BKN050 OVC080 24/21 A2990 RMK AO2 PK WND 31027/2132 WSHFT 2123 VIS 3/4V5 LTG DSNT NE AND W RAB27 TSB20E50 SLP123 P0047 T02440211
KLBX 152149Z AUTO 15009KT 3/4SM +TSRA BKN027 BKN050 OVC070 24/22 A2990 RMK AO2 PK WND 31027/2132 WSHFT 2123 VIS 1/2V4 LTG DSNT NE RAB27 TSB20 P0047
KLBX 152137Z AUTO 32010G27KT 3/4SM +TSRA FEW014 SCT032 BKN050 24/21 A2993 RMK AO2 PK WND 31027/2132 WSHFT 2123 RAB27 TSB20 P0023 T02440206
KLBX 152134Z AUTO 33015G27KT 1 1/2SM TSRA FEW014 SCT032 BKN050 25/21 A2992 RMK AO2 PK WND 31027/2132 RAB27 TSB20 P0010 T02500206
KLBX 152126Z AUTO 34015G23KT 310V010 9SM TS FEW030 FEW039 SCT055 29/22 A2992 RMK AO2 TSB20 PRESRR T02890222
KLBX 152053Z AUTO 19010KT 10SM CLR 32/24 A2989 RMK AO2 SLP122 T03170239 56016
KLBX 151953Z AUTO 18009KT 10SM CLR 33/23 A2990 RMK AO2 SLP125 T03280233
KLBX 151853Z AUTO 24004KT 10SM BKN039 32/22 A2992 RMK AO2 SLP131 T03170222
KLBX 151753Z AUTO 21004KT 10SM SCT033 BKN055 32/22 A2994 RMK AO2 SLP138 T03220217 10328 20239 58002
KLBX 151653Z AUTO 00000KT 10SM FEW029 SCT049 BKN060 30/23 A2996 RMK AO2 SLP143 T03000228
KLBX 151553Z AUTO 21006KT 10SM SCT024 BKN055 31/23 A2996 RMK AO2 SLP144 T03110233
KLBX 151453Z AUTO 21006KT 10SM FEW015 BKN050 29/24 A2995 RMK AO2 SLP140 T02940244 53018
KLBX 151353Z AUTO 17004KT 10SM CLR 27/26 A2992 RMK AO2 SLP133 T02720256
KLBX 151305Z AUTO 00000KT 9SM FEW015 24/23 A2991 RMK AO2 T02440233
KLBX 151258Z AUTO 00000KT 2 1/2SM BR FEW015 24/23 A2991 RMK AO2 VIS 3/4V5 T02440233
KLBX 151256Z AUTO 00000KT 1SM BR VV015 24/23 A2990 RMK AO2 VIS 1/4V5 T02390233
KLBX 151253Z AUTO 00000KT 1/2SM FG VV015 24/23 A2990 RMK AO2 SLP126 T02440233
KLBX 151245Z AUTO 00000KT 1/2SM FG FEW015 FEW055 24/23 A2990 RMK AO2 T02440228
KLBX 151232Z AUTO 00000KT 1 1/2SM BR BKN055 24/23 A2990 RMK AO2 VIS 1/2V5 T02440233
KLBX 151153Z AUTO 00000KT 6SM BR OVC055 24/23 A2989 RMK AO2 SLP121 60000 70004 T02440233 10244 20239 53008
KLBX 151053Z AUTO 00000KT 7SM OVC050 24/23 A2988 RMK AO2 SLP117 T02440228
KLBX 150953Z AUTO 00000KT 6SM BR BKN050 24/23 A2987 RMK AO2 SLP115 T02390228
KLBX 150946Z AUTO 00000KT 2 1/2SM BR BKN050 24/23 A2987 RMK AO2 T02440228
KLBX 150924Z AUTO 00000KT 3/4SM BR CLR 24/23 A2987 RMK AO2 T02390228
KLBX 150912Z AUTO 00000KT 1 3/4SM BR CLR 24/23 A2986 RMK AO2 T02440228
KLBX 150853Z AUTO 00000KT 7SM SCT046 24/23 A2987 RMK AO2 RAB18E27 SLP113 P0000 60000 T02440228 58002
KLBX 150828Z AUTO 00000KT 8SM FEW030 BKN044 BKN055 24/23 A2987 RMK AO2 RAB18E27 P0000 T02440228
KLBX 150821Z AUTO 00000KT 2 1/2SM -RA BR FEW017 FEW027 BKN049 24/23 A2987 RMK AO2 RAB18 P0000 T02390228
KLBX 150753Z AUTO 00000KT 5SM BR BKN043 24/23 A2988 RMK AO2 SLP116 T02440228
KLBX 150653Z AUTO 00000KT 5SM BR FEW022 SCT034 BKN050 24/23 A2988 RMK AO2 SLP116 T02440233
KLBX 150637Z AUTO 00000KT 2SM BR SCT021 SCT028 BKN050 24/23 A2987 RMK AO2 T02440233
KLBX 150626Z AUTO 00000KT 3SM BR SCT049 24/23 A2987 RMK AO2 T02440228
KLBX 150615Z AUTO 00000KT 1 1/2SM BR FEW023 FEW049 24/23 A2987 RMK AO2 T02390228
KLBX 150610Z AUTO 00000KT 4SM BR FEW023 SCT049 24/22 A2987 RMK AO2 T02390222
KLBX 150600Z AUTO 00000KT 2SM BR FEW024 BKN050 24/23 A2987 RMK AO2 T02390228
KLBX 150553Z AUTO 00000KT 3SM BR FEW024 BKN050 24/23 A2987 RMK AO2 SLP115 T02440233 10261 20239 402890239 50001